Time;durP1;ratioP1;P1;durP2;ratioP2;P2;SDS_P1;SDS_P2;PMS_P1;PMS_P2;Temp;Humidity;BMP_temperature;BMP_pressure;BME280_temperature;BME280_humidity;BME280_pressure;Samples;Min_cycle;Max_cycle;Signal;HPM_P1;HPM_P2
2022/07/07 00:01:53;;;;;;;8.10;5.15;;;19.50;93.70;;;;;;5093780;28;20480;-73
2022/07/07 00:04:19;;;;;;;6.40;5.15;;;19.50;93.90;;;;;;5094163;28;20567;-73
2022/07/07 00:06:44;;;;;;;7.07;4.88;;;19.50;94.10;;;;;;5093800;28;20020;-71
2022/07/07 00:09:10;;;;;;;5.53;4.47;;;19.50;94.20;;;;;;5093846;28;20158;-72
2022/07/07 00:11:36;;;;;;;8.65;5.63;;;19.50;94.20;;;;;;5094098;28;20371;-72
2022/07/07 00:14:02;;;;;;;7.22;5.30;;;19.50;94.40;;;;;;5093665;28;20495;-72
2022/07/07 00:16:28;;;;;;;7.80;5.25;;;19.50;94.50;;;;;;5093714;28;20031;-72
2022/07/07 00:18:55;;;;;;;8.68;4.90;;;19.50;94.60;;;;;;5093386;28;20111;-71
2022/07/07 00:21:20;;;;;;;6.78;4.70;;;19.60;94.70;;;;;;5093611;28;20041;-72
2022/07/07 00:23:46;;;;;;;6.18;4.53;;;19.60;94.70;;;;;;5093694;28;20036;-72
2022/07/07 00:26:11;;;;;;;7.22;5.18;;;19.60;94.70;;;;;;5093678;28;20027;-72
2022/07/07 00:28:37;;;;;;;10.32;5.10;;;19.60;94.60;;;;;;5093601;28;20020;-72
2022/07/07 00:31:03;;;;;;;6.70;5.15;;;19.70;94.70;;;;;;5093583;28;20020;-72
2022/07/07 00:33:28;;;;;;;6.72;4.65;;;19.60;94.70;;;;;;5093203;28;20055;-72
2022/07/07 00:35:54;;;;;;;7.22;4.65;;;19.60;94.80;;;;;;5093729;28;20050;-73
2022/07/07 00:38:20;;;;;;;8.40;4.95;;;19.60;94.80;;;;;;5094021;28;20073;-73
2022/07/07 00:40:50;;;;;;;7.20;4.70;;;19.50;94.70;;;;;;5093359;28;20073;-73
2022/07/07 00:43:15;;;;;;;8.10;4.97;;;19.60;94.90;;;;;;5093690;28;20020;-73
2022/07/07 00:45:41;;;;;;;9.25;5.05;;;19.50;95.00;;;;;;5093156;28;20487;-73
2022/07/07 00:48:08;;;;;;;8.90;5.40;;;19.50;95.10;;;;;;5093279;28;20529;-72
2022/07/07 00:50:33;;;;;;;6.88;5.13;;;19.50;95.10;;;;;;5093130;28;20044;-73
2022/07/07 00:52:59;;;;;;;7.20;4.80;;;19.50;95.10;;;;;;5093410;28;20035;-71
2022/07/07 00:55:25;;;;;;;8.70;4.60;;;19.50;95.10;;;;;;5094241;28;20055;-73
2022/07/07 00:57:50;;;;;;;7.80;4.75;;;19.60;95.20;;;;;;5093066;28;20032;-73
2022/07/07 01:00:16;;;;;;;8.20;5.50;;;19.60;95.10;;;;;;5093186;28;20043;-72
2022/07/07 01:02:42;;;;;;;5.82;4.55;;;19.60;95.30;;;;;;5092858;28;20024;-72
2022/07/07 01:05:09;;;;;;;8.73;5.25;;;19.60;95.30;;;;;;5093348;28;20036;-72
2022/07/07 01:07:38;;;;;;;8.55;5.30;;;19.50;95.50;;;;;;5093285;28;20027;-72
2022/07/07 01:10:06;;;;;;;7.45;5.82;;;19.60;95.60;;;;;;5093114;28;20069;-72
2022/07/07 01:12:36;;;;;;;7.07;5.65;;;19.60;95.90;;;;;;5093140;28;20037;-72
2022/07/07 01:15:04;;;;;;;9.05;5.85;;;19.60;96.20;;;;;;5092985;28;20028;-72
2022/07/07 01:17:29;;;;;;;10.77;5.38;;;19.50;96.40;;;;;;5093199;28;20031;-72
2022/07/07 01:19:55;;;;;;;8.95;5.38;;;19.50;96.60;;;;;;5092821;28;20032;-72
2022/07/07 01:22:24;;;;;;;9.02;5.95;;;19.50;96.80;;;;;;5092782;28;20028;-72
2022/07/07 01:24:50;;;;;;;10.00;5.97;;;19.50;96.80;;;;;;5092951;28;20035;-73
2022/07/07 01:27:18;;;;;;;10.95;5.32;;;19.50;96.80;;;;;;5092965;28;20020;-72
2022/07/07 01:29:45;;;;;;;9.63;4.97;;;19.50;97.10;;;;;;5093089;28;20367;-72
2022/07/07 01:32:11;;;;;;;9.68;5.10;;;19.50;97.00;;;;;;5093106;28;20047;-72
2022/07/07 01:34:38;;;;;;;8.63;5.30;;;19.50;96.90;;;;;;5093113;28;20464;-72
2022/07/07 01:37:04;;;;;;;6.50;4.55;;;19.50;97.00;;;;;;5092943;28;20031;-72
2022/07/07 01:39:30;;;;;;;12.15;5.20;;;19.50;97.00;;;;;;5093046;28;20028;-72
2022/07/07 01:41:56;;;;;;;10.05;4.82;;;19.50;97.00;;;;;;5092814;28;20130;-72
2022/07/07 01:44:22;;;;;;;11.52;5.22;;;19.60;97.10;;;;;;5092923;28;20052;-72
2022/07/07 01:46:47;;;;;;;8.68;5.15;;;19.50;97.10;;;;;;5096429;28;20020;-72
2022/07/07 01:49:13;;;;;;;7.85;4.82;;;19.50;97.20;;;;;;5096628;28;20054;-70
2022/07/07 01:51:39;;;;;;;8.88;4.60;;;19.50;97.20;;;;;;5096519;28;20020;-72
2022/07/07 01:54:05;;;;;;;6.57;3.88;;;19.50;97.20;;;;;;5096342;28;20406;-73
2022/07/07 01:56:30;;;;;;;6.38;4.03;;;19.50;97.20;;;;;;5096401;28;20028;-73
2022/07/07 01:58:56;;;;;;;7.97;4.15;;;19.60;97.20;;;;;;5096312;28;20036;-72
2022/07/07 02:01:22;;;;;;;4.22;3.30;;;19.60;97.10;;;;;;5096529;28;20032;-72
2022/07/07 02:03:48;;;;;;;7.10;3.55;;;19.60;97.00;;;;;;5096169;28;20492;-73
2022/07/07 02:06:14;;;;;;;8.90;3.30;;;19.60;97.20;;;;;;5096368;28;20463;-73
2022/07/07 02:08:39;;;;;;;6.90;3.15;;;19.60;96.90;;;;;;5096199;28;20020;-73
2022/07/07 02:11:14;;;;;;;6.05;2.60;;;19.60;96.70;;;;;;5096384;28;20028;-73
2022/07/07 02:13:48;;;;;;;4.97;2.60;;;19.70;96.60;;;;;;5095813;28;20032;-73
2022/07/07 02:16:15;;;;;;;8.23;2.67;;;19.60;96.40;;;;;;5096158;28;20047;-73
2022/07/07 02:18:43;;;;;;;6.03;2.42;;;19.60;96.40;;;;;;5095736;28;20364;-73
2022/07/07 02:21:10;;;;;;;4.88;2.33;;;19.60;96.30;;;;;;5095889;28;20020;-73
2022/07/07 02:23:37;;;;;;;4.85;1.90;;;19.60;96.30;;;;;;5095846;28;20028;-72
2022/07/07 02:26:03;;;;;;;4.63;2.20;;;19.60;96.20;;;;;;5095645;28;20546;-73
2022/07/07 02:28:29;;;;;;;6.68;2.30;;;19.60;96.60;;;;;;5095845;28;20028;-73
2022/07/07 02:30:56;;;;;;;5.57;2.13;;;19.70;96.70;;;;;;5095887;28;20024;-73
2022/07/07 02:33:22;;;;;;;3.15;1.30;;;19.60;96.90;;;;;;5095715;28;20028;-73
2022/07/07 02:35:49;;;;;;;4.10;1.60;;;19.50;97.00;;;;;;5095650;28;20482;-73
2022/07/07 02:38:15;;;;;;;4.72;1.20;;;19.40;96.90;;;;;;5095701;28;20028;-73
2022/07/07 02:40:41;;;;;;;3.58;1.42;;;19.30;97.30;;;;;;5095942;28;20116;-73
2022/07/07 02:43:08;;;;;;;3.97;1.35;;;19.20;97.50;;;;;;5095793;28;20474;-73
2022/07/07 02:45:33;;;;;;;4.30;1.48;;;19.10;98.10;;;;;;5097804;28;20459;-74
2022/07/07 02:47:59;;;;;;;4.10;1.70;;;19.10;98.30;;;;;;5095577;28;20028;-73
2022/07/07 02:50:24;;;;;;;4.95;1.30;;;19.00;98.60;;;;;;5095350;28;20048;-73
2022/07/07 02:52:50;;;;;;;1.65;0.82;;;19.00;98.80;;;;;;5095249;28;20028;-73
2022/07/07 02:55:16;;;;;;;5.60;1.30;;;18.90;99.00;;;;;;5094822;28;20388;-73
2022/07/07 02:57:41;;;;;;;2.28;0.80;;;18.70;99.10;;;;;;5094122;28;20073;-73
2022/07/07 03:00:08;;;;;;;4.50;1.67;;;18.70;99.30;;;;;;5095149;28;20036;-73
2022/07/07 03:02:34;;;;;;;3.17;0.80;;;18.60;99.40;;;;;;5095282;28;20379;-73
2022/07/07 03:05:00;;;;;;;4.25;0.82;;;18.60;99.60;;;;;;5094936;28;20489;-73
2022/07/07 03:07:26;;;;;;;3.33;0.80;;;18.50;99.60;;;;;;5094592;28;20110;-73
2022/07/07 03:09:52;;;;;;;3.15;0.90;;;18.50;99.70;;;;;;5095058;28;20024;-72
2022/07/07 03:12:17;;;;;;;3.60;1.05;;;18.50;99.60;;;;;;5095047;28;20475;-73
2022/07/07 03:14:43;;;;;;;3.28;0.85;;;18.60;99.60;;;;;;5095001;28;20031;-73
2022/07/07 03:17:08;;;;;;;4.28;1.08;;;18.50;99.60;;;;;;5094968;28;20109;-73
2022/07/07 03:19:39;;;;;;;3.13;0.93;;;18.50;99.60;;;;;;5095021;28;20455;-73
2022/07/07 03:22:04;;;;;;;2.47;0.75;;;18.50;99.60;;;;;;5094649;28;20375;-73
2022/07/07 03:24:31;;;;;;;2.10;1.02;;;18.60;99.60;;;;;;5095217;28;20020;-73
2022/07/07 03:26:58;;;;;;;2.58;0.60;;;18.60;99.60;;;;;;5094467;28;20471;-73
2022/07/07 03:29:25;;;;;;;2.13;0.82;;;18.60;99.60;;;;;;5094779;28;20043;-71
2022/07/07 03:31:50;;;;;;;2.42;0.90;;;18.60;99.60;;;;;;5094128;28;20021;-72
2022/07/07 03:34:16;;;;;;;5.55;1.10;;;18.60;99.60;;;;;;5094711;28;20028;-72
2022/07/07 03:36:41;;;;;;;3.08;0.90;;;18.50;99.70;;;;;;5094256;28;20054;-73
2022/07/07 03:39:07;;;;;;;2.75;1.00;;;18.50;99.70;;;;;;5094652;28;20049;-72
2022/07/07 03:41:33;;;;;;;3.08;1.00;;;18.50;99.70;;;;;;5097532;28;20028;-73
2022/07/07 03:43:58;;;;;;;4.22;1.67;;;18.50;99.90;;;;;;5095249;28;20020;-71
2022/07/07 03:46:24;;;;;;;4.53;1.48;;;18.40;99.90;;;;;;5094151;28;20113;-73
2022/07/07 03:48:49;;;;;;;2.30;0.98;;;18.40;99.90;;;;;;5094076;28;20040;-73
2022/07/07 03:51:15;;;;;;;3.80;1.13;;;18.40;99.90;;;;;;5093919;28;20593;-73
2022/07/07 03:53:41;;;;;;;4.28;1.10;;;18.40;99.90;;;;;;5094130;28;20111;-73
2022/07/07 03:56:06;;;;;;;3.35;1.00;;;18.40;99.90;;;;;;5093956;28;20027;-73
2022/07/07 03:58:32;;;;;;;4.40;1.08;;;18.30;99.90;;;;;;5094239;28;20032;-73
2022/07/07 04:00:59;;;;;;;3.28;1.30;;;18.30;99.90;;;;;;5094203;28;20020;-73
2022/07/07 04:03:25;;;;;;;2.47;1.20;;;18.30;99.90;;;;;;5093978;28;20399;-73
2022/07/07 04:05:51;;;;;;;2.47;1.10;;;18.20;99.90;;;;;;5093843;28;20024;-73
2022/07/07 04:08:17;;;;;;;3.10;1.20;;;18.30;99.90;;;;;;5093889;28;20024;-73
2022/07/07 04:10:42;;;;;;;2.58;1.08;;;18.30;99.90;;;;;;5093975;28;20028;-72
2022/07/07 04:13:08;;;;;;;3.78;1.17;;;18.20;99.90;;;;;;5093512;28;20457;-73
2022/07/07 04:15:34;;;;;;;3.78;1.38;;;18.30;99.90;;;;;;5093990;28;20032;-73
2022/07/07 04:18:01;;;;;;;4.75;1.20;;;18.20;99.90;;;;;;5093853;28;20434;-73
2022/07/07 04:20:29;;;;;;;3.25;1.23;;;18.20;99.90;;;;;;5093845;28;20089;-73
2022/07/07 04:22:55;;;;;;;2.85;1.40;;;18.20;99.90;;;;;;5093771;28;20043;-73
2022/07/07 04:25:21;;;;;;;3.78;1.60;;;18.10;99.90;;;;;;5093579;28;20467;-73
2022/07/07 04:27:46;;;;;;;4.00;1.35;;;18.10;99.90;;;;;;5093613;28;20031;-73
2022/07/07 04:30:12;;;;;;;3.22;0.82;;;18.10;99.90;;;;;;5093784;28;20500;-72
2022/07/07 04:32:38;;;;;;;2.80;0.90;;;18.10;99.90;;;;;;5093595;28;20020;-73
2022/07/07 04:35:03;;;;;;;1.73;0.50;;;18.00;99.90;;;;;;5093527;28;20020;-73
2022/07/07 04:37:29;;;;;;;3.15;0.63;;;18.00;99.90;;;;;;5096742;28;20087;-73
2022/07/07 04:39:55;;;;;;;2.15;0.50;;;18.00;99.90;;;;;;5094237;28;20394;-72
2022/07/07 04:42:20;;;;;;;1.58;0.40;;;18.00;99.90;;;;;;5092951;28;20073;-73
2022/07/07 04:44:46;;;;;;;3.58;0.55;;;18.00;99.90;;;;;;5093311;28;20103;-73
2022/07/07 04:47:11;;;;;;;2.10;0.50;;;18.00;99.90;;;;;;5093062;28;20371;-72
2022/07/07 04:49:37;;;;;;;3.97;0.68;;;18.10;99.90;;;;;;5092846;28;20059;-72
2022/07/07 04:52:03;;;;;;;1.90;0.50;;;18.00;99.90;;;;;;5093412;28;20028;-73
2022/07/07 04:54:28;;;;;;;3.47;0.85;;;18.00;99.90;;;;;;5093127;28;20024;-73
2022/07/07 04:56:54;;;;;;;3.67;0.57;;;18.10;99.90;;;;;;5092975;28;20022;-73
2022/07/07 04:59:20;;;;;;;2.97;0.70;;;18.10;99.90;;;;;;5092870;28;20035;-73
2022/07/07 05:01:45;;;;;;;3.30;0.80;;;18.10;99.90;;;;;;5093110;28;20021;-72
2022/07/07 05:04:11;;;;;;;4.07;0.60;;;18.10;99.90;;;;;;5093210;28;20032;-73
2022/07/07 05:06:36;;;;;;;2.83;0.55;;;18.10;99.90;;;;;;5093159;28;20523;-73
2022/07/07 05:09:02;;;;;;;3.13;0.43;;;18.10;99.90;;;;;;5092972;28;20110;-74
2022/07/07 05:11:28;;;;;;;4.22;0.50;;;18.10;99.90;;;;;;5093020;28;20076;-72
2022/07/07 05:13:54;;;;;;;5.18;0.52;;;18.10;99.90;;;;;;5093077;28;20024;-73
2022/07/07 05:16:19;;;;;;;4.78;0.52;;;18.00;99.90;;;;;;5093285;28;20379;-71
2022/07/07 05:18:45;;;;;;;5.28;0.50;;;18.00;99.90;;;;;;5092457;28;20035;-72
2022/07/07 05:21:11;;;;;;;3.72;0.60;;;18.10;99.90;;;;;;5096558;28;20174;-72
2022/07/07 05:23:36;;;;;;;3.92;0.70;;;18.10;99.90;;;;;;5096672;28;20467;-73
2022/07/07 05:26:02;;;;;;;5.43;0.85;;;18.10;99.90;;;;;;5096565;28;20051;-73
2022/07/07 05:28:30;;;;;;;8.45;0.68;;;18.00;99.90;;;;;;5096867;28;20024;-72
2022/07/07 05:30:55;;;;;;;2.65;0.30;;;18.00;99.90;;;;;;5096339;28;20052;-72
2022/07/07 05:33:21;;;;;;;5.90;0.40;;;17.90;99.90;;;;;;5101026;28;20031;-73
2022/07/07 05:35:47;;;;;;;4.22;0.65;;;17.90;99.90;;;;;;5099659;28;20023;-73
2022/07/07 05:38:12;;;;;;;2.58;0.30;;;18.00;99.90;;;;;;5096709;28;20059;-73
2022/07/07 05:40:38;;;;;;;7.60;0.55;;;17.90;99.90;;;;;;5096569;28;20468;-73
2022/07/07 05:43:04;;;;;;;6.47;0.50;;;17.90;99.90;;;;;;5096566;28;20089;-73
2022/07/07 05:45:29;;;;;;;5.45;0.70;;;18.00;99.90;;;;;;5096719;28;20080;-73
2022/07/07 05:47:55;;;;;;;3.60;0.57;;;18.00;99.90;;;;;;5096189;28;20024;-74
2022/07/07 05:50:21;;;;;;;6.78;0.60;;;18.10;99.90;;;;;;5095876;28;20048;-74
2022/07/07 05:52:46;;;;;;;7.65;0.50;;;18.10;99.90;;;;;;5096285;28;20027;-73
2022/07/07 05:55:12;;;;;;;6.93;0.68;;;18.10;99.90;;;;;;5096423;28;20109;-73
2022/07/07 05:57:38;;;;;;;8.77;0.98;;;18.10;99.90;;;;;;5096505;28;20016;-72
2022/07/07 06:00:05;;;;;;;4.15;0.50;;;18.00;99.50;;;;;;5096235;28;20540;-72
2022/07/07 06:02:30;;;;;;;5.32;0.82;;;18.10;99.70;;;;;;5095954;28;20502;-72
2022/07/07 06:04:56;;;;;;;7.68;0.80;;;18.10;99.40;;;;;;5095935;28;20032;-72
2022/07/07 06:07:21;;;;;;;8.38;1.02;;;18.20;99.20;;;;;;5096193;28;20099;-72
2022/07/07 06:09:47;;;;;;;6.63;0.60;;;18.20;99.20;;;;;;5096069;28;20082;-73
2022/07/07 06:12:14;;;;;;;10.35;0.90;;;18.20;99.20;;;;;;5095935;28;20027;-73
2022/07/07 06:14:39;;;;;;;7.63;0.82;;;18.30;99.30;;;;;;5095844;28;20050;-72
2022/07/07 06:17:05;;;;;;;6.25;0.80;;;18.40;99.00;;;;;;5095398;28;20020;-73
2022/07/07 06:19:31;;;;;;;6.68;0.98;;;18.40;99.00;;;;;;5095957;28;20082;-73
2022/07/07 06:21:56;;;;;;;11.00;1.40;;;18.40;98.90;;;;;;5095989;28;20107;-73
2022/07/07 06:24:22;;;;;;;7.72;0.77;;;18.40;98.90;;;;;;5095972;28;20031;-73
2022/07/07 06:26:48;;;;;;;9.75;0.90;;;18.40;99.10;;;;;;5095935;28;20491;-73
2022/07/07 06:29:14;;;;;;;5.72;0.77;;;18.30;98.90;;;;;;5095734;28;20459;-71
2022/07/07 06:31:39;;;;;;;9.18;1.38;;;18.10;98.70;;;;;;5094984;28;20020;-73
2022/07/07 06:34:05;;;;;;;7.20;0.82;;;18.10;98.80;;;;;;5095814;28;20028;-73
2022/07/07 06:36:31;;;;;;;4.85;0.50;;;18.00;98.80;;;;;;5095242;28;20028;-73
2022/07/07 06:38:56;;;;;;;3.47;0.40;;;18.00;98.70;;;;;;5095043;28;20126;-73
2022/07/07 06:41:23;;;;;;;5.35;0.60;;;18.10;98.60;;;;;;5095455;28;20119;-73
2022/07/07 06:43:49;;;;;;;5.97;1.33;;;18.10;98.70;;;;;;5095387;28;20460;-73
2022/07/07 06:46:15;;;;;;;3.75;0.50;;;18.10;98.80;;;;;;5095590;28;20020;-72
2022/07/07 06:48:40;;;;;;;6.00;0.70;;;18.10;98.60;;;;;;5094822;28;20489;-73
2022/07/07 06:51:06;;;;;;;7.68;0.88;;;18.20;98.70;;;;;;5095545;28;20528;-73
2022/07/07 06:53:32;;;;;;;9.10;0.73;;;18.30;98.80;;;;;;5095220;28;20024;-73
2022/07/07 06:55:57;;;;;;;6.10;0.50;;;18.40;98.20;;;;;;5095393;28;20091;-73
2022/07/07 06:58:23;;;;;;;6.47;0.98;;;18.30;98.30;;;;;;5094967;28;20351;-73
2022/07/07 07:00:49;;;;;;;6.05;0.73;;;18.30;98.40;;;;;;5094947;28;20475;-73
2022/07/07 07:03:15;;;;;;;8.25;0.90;;;18.40;98.40;;;;;;5094912;28;20031;-73
2022/07/07 07:05:40;;;;;;;5.13;0.75;;;18.50;98.20;;;;;;5095178;28;20020;-73
2022/07/07 07:08:06;;;;;;;6.00;0.63;;;18.50;98.00;;;;;;5094784;28;20533;-73
2022/07/07 07:10:32;;;;;;;4.85;0.52;;;18.50;98.10;;;;;;5094334;28;20064;-73
2022/07/07 07:12:57;;;;;;;5.60;0.60;;;18.40;97.80;;;;;;5094776;28;20061;-73
2022/07/07 07:15:23;;;;;;;6.07;0.85;;;18.50;98.00;;;;;;5094511;28;20020;-72
2022/07/07 07:17:48;;;;;;;4.22;0.52;;;18.50;98.00;;;;;;5094785;28;20035;-72
2022/07/07 07:20:14;;;;;;;6.05;0.70;;;18.50;97.80;;;;;;5094550;28;20032;-72
2022/07/07 07:22:41;;;;;;;5.15;0.68;;;18.50;97.80;;;;;;5094871;28;20020;-72
2022/07/07 07:25:07;;;;;;;7.13;1.05;;;18.50;98.00;;;;;;5094689;28;20028;-71
2022/07/07 07:27:34;;;;;;;4.85;0.50;;;18.40;98.10;;;;;;5094840;28;20051;-72
2022/07/07 07:30:00;;;;;;;4.18;0.40;;;18.30;98.40;;;;;;5094467;28;20022;-72
2022/07/07 07:32:26;;;;;;;5.25;0.60;;;18.20;98.30;;;;;;5093936;28;20550;-72
2022/07/07 07:34:51;;;;;;;5.32;0.30;;;18.20;98.40;;;;;;5092468;28;20024;-73
2022/07/07 07:37:17;;;;;;;6.35;0.70;;;18.30;98.50;;;;;;5090979;28;20035;-71
2022/07/07 07:39:43;;;;;;;3.47;0.40;;;18.40;98.60;;;;;;5091607;28;20059;-71
2022/07/07 07:42:09;;;;;;;3.65;0.35;;;18.40;98.40;;;;;;5090800;28;20066;-73
2022/07/07 07:47:19;;;;;;;4.88;0.52;;;18.40;98.20;;;;;;5091214;28;20039;-73
2022/07/07 07:49:45;;;;;;;3.75;0.35;;;18.40;98.40;;;;;;5092192;28;20036;-73
2022/07/07 07:52:10;;;;;;;4.43;0.52;;;18.30;98.40;;;;;;5092680;28;20039;-72
2022/07/07 07:54:36;;;;;;;3.08;0.40;;;18.40;98.30;;;;;;5092743;28;20434;-72
2022/07/07 07:57:02;;;;;;;2.95;0.45;;;18.40;98.40;;;;;;5093334;28;20471;-72
2022/07/07 07:59:28;;;;;;;4.13;0.60;;;18.30;98.50;;;;;;5092160;28;20047;-73
2022/07/07 08:01:53;;;;;;;3.30;0.40;;;18.30;98.80;;;;;;5092968;28;20388;-73
2022/07/07 08:04:19;;;;;;;2.95;0.40;;;18.40;99.20;;;;;;5092073;28;20020;-72
2022/07/07 08:06:45;;;;;;;3.50;0.70;;;18.40;99.00;;;;;;5091579;28;20026;-72
2022/07/07 08:09:10;;;;;;;5.18;0.73;;;18.40;99.10;;;;;;5092133;28;20024;-73
2022/07/07 08:11:36;;;;;;;4.68;0.60;;;18.40;99.10;;;;;;5092320;28;20024;-72
2022/07/07 08:14:01;;;;;;;4.22;0.70;;;18.50;99.20;;;;;;5092280;28;20372;-71
2022/07/07 08:16:28;;;;;;;6.68;0.30;;;18.50;99.40;;;;;;5092350;28;20024;-72
2022/07/07 08:18:53;;;;;;;5.07;0.40;;;18.50;99.30;;;;;;5091896;28;20036;-72
2022/07/07 08:21:19;;;;;;;3.78;0.45;;;18.50;99.20;;;;;;5093685;28;20027;-73
2022/07/07 08:23:45;;;;;;;5.00;0.50;;;18.50;99.40;;;;;;5092356;28;20027;-72
2022/07/07 08:26:12;;;;;;;7.07;1.13;;;18.50;99.20;;;;;;5092183;28;20039;-73
2022/07/07 08:28:38;;;;;;;5.55;0.70;;;18.50;99.40;;;;;;5091754;28;20056;-73
2022/07/07 08:31:03;;;;;;;7.40;0.82;;;18.60;99.70;;;;;;5091356;28;20062;-73
2022/07/07 08:33:29;;;;;;;6.70;0.60;;;18.80;99.40;;;;;;5091951;28;20154;-73
2022/07/07 08:35:55;;;;;;;6.22;0.70;;;18.90;99.40;;;;;;5092307;28;20024;-73
2022/07/07 08:38:20;;;;;;;6.03;0.82;;;19.00;99.30;;;;;;5091731;28;20032;-74
2022/07/07 08:40:46;;;;;;;6.43;0.68;;;19.10;99.20;;;;;;5091891;28;20378;-73
2022/07/07 08:43:12;;;;;;;9.18;0.80;;;19.00;99.00;;;;;;5091702;28;20066;-73
2022/07/07 08:45:38;;;;;;;5.90;0.50;;;18.80;98.50;;;;;;5091132;28;20499;-73
2022/07/07 08:48:03;;;;;;;3.08;0.50;;;18.70;98.60;;;;;;5092589;28;20027;-73
2022/07/07 08:50:30;;;;;;;4.32;0.20;;;18.70;99.10;;;;;;5091690;28;20044;-73
2022/07/07 08:52:58;;;;;;;3.65;0.40;;;18.60;99.00;;;;;;5088694;28;20036;-72
2022/07/07 08:55:24;;;;;;;3.58;0.38;;;18.90;99.80;;;;;;5095289;28;20030;-73
2022/07/07 08:57:52;;;;;;;3.10;0.20;;;19.10;99.20;;;;;;5096301;28;20098;-72
2022/07/07 09:00:19;;;;;;;4.85;0.30;;;19.20;98.70;;;;;;5097257;28;20379;-73
2022/07/07 09:02:45;;;;;;;3.00;0.40;;;19.20;98.20;;;;;;5096487;28;20040;-72
2022/07/07 09:05:11;;;;;;;3.72;0.93;;;19.20;98.00;;;;;;5097067;28;20365;-72
2022/07/07 09:07:49;;;;;;;2.75;0.40;;;19.20;98.50;;;;;;5096989;28;20020;-73
2022/07/07 09:10:48;;;;;;;3.47;0.50;;;19.20;98.40;;;;;;5097085;28;20024;-71
2022/07/07 09:13:32;;;;;;;2.17;0.40;;;19.30;98.30;;;;;;5052480;28;20056;-72
2022/07/07 09:16:02;;;;;;;4.07;0.40;;;19.30;97.80;;;;;;5097272;28;20107;-71
2022/07/07 09:18:33;;;;;;;2.00;0.20;;;19.20;97.90;;;;;;5099505;28;20382;-73
2022/07/07 09:21:01;;;;;;;1.45;0.15;;;19.30;98.10;;;;;;5097127;28;20039;-72
2022/07/07 09:23:27;;;;;;;1.10;0.20;;;19.30;98.20;;;;;;5096868;28;20457;-72
2022/07/07 09:25:53;;;;;;;3.08;0.20;;;19.40;98.20;;;;;;5096791;28;20034;-72
2022/07/07 09:28:18;;;;;;;2.67;0.30;;;19.40;98.30;;;;;;5097097;28;20046;-73
2022/07/07 09:30:46;;;;;;;1.48;0.13;;;19.50;97.80;;;;;;5096887;28;20020;-72
2022/07/07 09:33:25;;;;;;;2.80;0.20;;;19.60;97.90;;;;;;5096885;28;20024;-72
2022/07/07 09:38:39;;;;;;;1.88;0.10;;;20.00;97.80;;;;;;5096892;28;20047;-72
2022/07/07 09:41:08;;;;;;;2.78;0.10;;;20.10;97.10;;;;;;5096695;28;20046;-70
2022/07/07 09:43:36;;;;;;;2.05;0.10;;;20.20;96.60;;;;;;5096386;28;20020;-72
2022/07/07 09:46:24;;;;;;;2.83;0.20;;;20.10;96.30;;;;;;5096701;28;20051;-72
2022/07/07 09:48:55;;;;;;;2.05;0.28;;;20.10;96.20;;;;;;5096246;28;20494;-72
2022/07/07 09:51:23;;;;;;;2.47;0.47;;;19.90;96.30;;;;;;5096659;28;20034;-72
2022/07/07 09:54:08;;;;;;;2.25;0.17;;;19.70;96.70;;;;;;5095943;28;20425;-72
2022/07/07 09:56:39;;;;;;;1.48;0.10;;;19.70;96.90;;;;;;5096621;28;20062;-72
2022/07/07 09:59:10;;;;;;;2.17;0.20;;;19.60;96.60;;;;;;5096301;28;20032;-72
2022/07/07 10:01:38;;;;;;;0.98;0.03;;;19.70;96.80;;;;;;5098418;28;20016;-73
2022/07/07 10:04:22;;;;;;;2.35;0.10;;;19.80;96.70;;;;;;5114987;28;20030;-73
2022/07/07 10:06:48;;;;;;;1.85;0.30;;;19.70;96.70;;;;;;5093779;28;20065;-73
2022/07/07 10:09:18;;;;;;;1.88;0.10;;;19.60;96.40;;;;;;5094458;28;20024;-71
2022/07/07 10:11:50;;;;;;;2.33;0.20;;;19.50;96.50;;;;;;5092645;28;20028;-72
2022/07/07 10:14:31;;;;;;;3.15;0.28;;;19.50;96.60;;;;;;5092968;28;20115;-70
2022/07/07 10:16:57;;;;;;;1.83;0.43;;;19.50;96.70;;;;;;5092790;28;20106;-72
2022/07/07 10:19:24;;;;;;;1.95;0.20;;;19.50;96.60;;;;;;5093553;28;20452;-72
2022/07/07 10:21:54;;;;;;;3.17;0.22;;;19.40;96.70;;;;;;5091719;28;20032;-72
2022/07/07 10:24:22;;;;;;;4.90;0.10;;;19.50;97.10;;;;;;5093066;28;20058;-72
2022/07/07 10:26:53;;;;;;;2.03;0.22;;;19.60;97.30;;;;;;5092484;28;20047;-72
2022/07/07 10:29:45;;;;;;;5.07;0.20;;;19.70;97.10;;;;;;5093026;28;20027;-71
2022/07/07 10:32:16;;;;;;;3.70;0.20;;;19.80;96.80;;;;;;5094426;28;20099;-73
2022/07/07 10:34:53;;;;;;;2.20;0.10;;;19.80;96.60;;;;;;5094338;28;20024;-72
2022/07/07 10:37:20;;;;;;;5.32;0.30;;;19.80;96.30;;;;;;5093554;28;20024;-72
2022/07/07 10:39:53;;;;;;;2.38;0.20;;;19.70;96.30;;;;;;5091615;28;20093;-72
2022/07/07 10:42:46;;;;;;;2.85;0.20;;;19.70;96.60;;;;;;5093796;28;20187;-71
2022/07/07 10:45:12;;;;;;;2.60;0.30;;;19.60;97.00;;;;;;5092290;28;20027;-71
2022/07/07 10:47:37;;;;;;;1.98;0.30;;;19.70;97.20;;;;;;5094310;28;20563;-71
2022/07/07 10:50:22;;;;;;;3.72;0.22;;;19.70;97.20;;;;;;5093301;28;20051;-71
2022/07/07 10:52:47;;;;;;;4.32;0.40;;;19.60;97.30;;;;;;5093283;28;20502;-71
2022/07/07 10:55:13;;;;;;;4.25;0.40;;;19.60;97.10;;;;;;5093660;28;20028;-72
2022/07/07 10:57:46;;;;;;;2.58;0.30;;;19.70;96.90;;;;;;5093690;28;20116;-72
2022/07/07 11:00:27;;;;;;;2.45;0.40;;;19.80;97.10;;;;;;5093496;28;20038;-72
2022/07/07 11:03:09;;;;;;;4.30;0.85;;;20.10;97.50;;;;;;5092737;28;20073;-72
2022/07/07 11:05:35;;;;;;;2.30;0.30;;;20.60;97.90;;;;;;5092057;28;20028;-72
2022/07/07 11:08:06;;;;;;;3.05;0.43;;;20.60;95.40;;;;;;5093852;28;20028;-72
2022/07/07 11:10:53;;;;;;;2.40;0.40;;;20.60;95.00;;;;;;5093161;28;20544;-71
2022/07/07 11:13:37;;;;;;;2.35;0.25;;;20.60;94.90;;;;;;5093083;28;20361;-73
2022/07/07 11:16:15;;;;;;;3.40;0.40;;;20.50;94.70;;;;;;5090732;28;20032;-72
2022/07/07 11:18:58;;;;;;;1.90;0.40;;;20.40;95.20;;;;;;5091980;28;20517;-72
2022/07/07 11:21:38;;;;;;;;;;;20.20;95.90;;;;;;5093172;28;20459;-72
2022/07/07 11:24:14;;;;;;;5.05;0.40;;;20.00;96.50;;;;;;5093000;28;19990;-72
2022/07/07 11:26:40;;;;;;;4.50;0.50;;;19.90;97.30;;;;;;5093103;28;20026;-72
2022/07/07 11:29:06;;;;;;;3.70;0.40;;;19.90;97.80;;;;;;5093697;28;20024;-72
2022/07/07 11:31:31;;;;;;;1.73;0.30;;;20.00;98.00;;;;;;5095485;28;20040;-71
2022/07/07 11:33:57;;;;;;;2.55;0.40;;;20.00;98.00;;;;;;5094117;28;20027;-72
2022/07/07 11:36:26;;;;;;;2.75;0.40;;;20.00;97.60;;;;;;5093841;28;20150;-71
2022/07/07 11:39:02;;;;;;;2.58;0.30;;;19.90;97.50;;;;;;5094321;28;20374;-71
2022/07/07 11:41:41;;;;;;;2.63;0.30;;;19.90;97.70;;;;;;5094321;28;20382;-71
2022/07/07 11:44:20;;;;;;;2.33;0.28;;;20.00;97.00;;;;;;5094322;28;20042;-71
2022/07/07 11:46:51;;;;;;;2.58;0.38;;;20.00;96.10;;;;;;5102764;28;20084;-70
2022/07/07 11:49:18;;;;;;;2.20;0.60;;;20.00;96.00;;;;;;5097682;28;20071;-70
2022/07/07 11:51:48;;;;;;;3.72;0.30;;;20.10;96.00;;;;;;5094355;28;20024;-70
2022/07/07 11:54:13;;;;;;;3.70;0.65;;;20.20;95.90;;;;;;5091921;28;20415;-72
2022/07/07 11:56:41;;;;;;;2.45;0.30;;;20.10;95.70;;;;;;5092896;28;20058;-71
2022/07/07 11:59:07;;;;;;;4.25;0.40;;;20.10;95.70;;;;;;5092164;28;20054;-72
2022/07/07 12:01:35;;;;;;;2.72;0.30;;;20.10;95.50;;;;;;5091341;28;20086;-71
2022/07/07 12:04:12;;;;;;;0.85;0.25;;;20.00;95.60;;;;;;5092580;28;20017;-71
2022/07/07 12:06:37;;;;;;;2.20;0.40;;;19.90;95.90;;;;;;5092359;28;20475;-70
2022/07/07 12:09:04;;;;;;;3.20;0.50;;;20.10;96.10;;;;;;5093783;28;20020;-71
2022/07/07 12:11:29;;;;;;;2.22;0.30;;;20.20;96.00;;;;;;5092517;28;20030;-71
2022/07/07 12:13:57;;;;;;;2.42;0.40;;;20.20;95.80;;;;;;5091798;28;20032;-71
2022/07/07 12:16:22;;;;;;;4.88;0.63;;;20.30;95.10;;;;;;5089620;28;20505;-72
2022/07/07 12:18:48;;;;;;;2.28;0.60;;;20.40;94.80;;;;;;5091964;28;20032;-72
2022/07/07 12:21:21;;;;;;;4.60;0.82;;;20.40;94.60;;;;;;5092027;28;20390;-72
2022/07/07 12:23:50;;;;;;;3.10;0.43;;;20.40;94.40;;;;;;5092272;28;20032;-72
2022/07/07 12:26:27;;;;;;;5.43;0.68;;;20.30;94.60;;;;;;5092310;28;20024;-72
2022/07/07 12:28:59;;;;;;;7.50;1.00;;;20.20;95.60;;;;;;5091663;28;20374;-72
2022/07/07 12:31:24;;;;;;;8.60;1.02;;;20.00;96.40;;;;;;5091633;28;20115;-72
2022/07/07 12:33:50;;;;;;;7.68;1.10;;;20.00;96.40;;;;;;5091356;28;20123;-72
2022/07/07 12:36:26;;;;;;;12.02;1.83;;;20.00;96.10;;;;;;5091488;28;20060;-72
2022/07/07 12:38:57;;;;;;;12.32;1.50;;;20.00;96.40;;;;;;5091367;28;20016;-72
2022/07/07 12:41:33;;;;;;;9.52;1.52;;;20.00;96.30;;;;;;5091800;28;20040;-71
2022/07/07 12:44:29;;;;;;;12.25;1.38;;;20.00;96.20;;;;;;5091550;28;20016;-72
2022/07/07 12:46:56;;;;;;;10.23;1.38;;;20.10;96.10;;;;;;5091386;28;20032;-72
2022/07/07 12:49:22;;;;;;;11.68;1.80;;;20.30;95.50;;;;;;5091676;28;20090;-72
2022/07/07 12:51:55;;;;;;;5.82;0.85;;;20.50;94.50;;;;;;5091586;28;20353;-71
2022/07/07 12:54:27;;;;;;;8.45;1.33;;;20.60;94.20;;;;;;5089099;28;20098;-71